Time;durP1;ratioP1;P1;durP2;ratioP2;P2;SDS_P1;SDS_P2;PMS_P1;PMS_P2;Temp;Humidity;BMP_temperature;BMP_pressure;BME280_temperature;BME280_humidity;BME280_pressure;Samples;Min_cycle;Max_cycle;Signal;HPM_P1;HPM_P2
2023/10/07 00:00:15;;;;;;;5.47;3.20;;;17.70;62.40;;;;;;4986191;28;20065;-49
2023/10/07 00:02:59;;;;;;;4.55;3.28;;;17.60;62.40;;;;;;4989722;28;20537;-49
2023/10/07 00:05:35;;;;;;;7.63;2.92;;;17.60;62.50;;;;;;4983120;28;20042;-48
2023/10/07 00:08:12;;;;;;;5.35;3.00;;;17.60;62.80;;;;;;4986725;28;20558;-50
2023/10/07 00:10:41;;;;;;;4.70;3.35;;;17.60;62.60;;;;;;4985392;28;20047;-50
2023/10/07 00:13:20;;;;;;;3.90;2.70;;;17.60;62.80;;;;;;4989815;28;20038;-49
2023/10/07 00:15:53;;;;;;;5.60;2.83;;;17.60;63.00;;;;;;5001431;23;20061;-47
2023/10/07 00:18:22;;;;;;;8.63;4.00;;;17.50;62.80;;;;;;4953142;28;20541;-47
2023/10/07 00:21:04;;;;;;;4.28;3.00;;;17.50;63.10;;;;;;4969939;28;20081;-47
2023/10/07 00:23:37;;;;;;;6.43;2.92;;;17.50;63.30;;;;;;4959255;28;20039;-47
2023/10/07 00:26:13;;;;;;;7.93;3.25;;;17.50;63.40;;;;;;4969449;28;20049;-47
2023/10/07 00:29:00;;;;;;;5.40;3.20;;;17.50;63.60;;;;;;4969311;28;20406;-48
2023/10/07 00:31:39;;;;;;;5.72;3.40;;;17.50;63.70;;;;;;4980013;28;20071;-48
2023/10/07 00:34:15;;;;;;;10.52;5.00;;;17.50;63.60;;;;;;4971011;28;20038;-47
2023/10/07 00:36:56;;;;;;;6.00;2.88;;;17.50;63.60;;;;;;4968771;28;20046;-47
2023/10/07 00:39:46;;;;;;;5.95;3.35;;;17.50;64.20;;;;;;4964434;28;20050;-49
2023/10/07 00:42:28;;;;;;;4.32;3.08;;;17.50;64.40;;;;;;4969674;28;20066;-48
2023/10/07 00:45:01;;;;;;;4.68;3.10;;;17.40;63.70;;;;;;4977658;28;20043;-47
2023/10/07 00:47:41;;;;;;;4.35;2.95;;;17.40;63.80;;;;;;4968409;28;20043;-48
2023/10/07 00:50:17;;;;;;;4.65;2.72;;;17.50;64.10;;;;;;4962503;28;20677;-50
2023/10/07 00:55:37;;;;;;;5.07;3.63;;;17.40;64.20;;;;;;4967380;28;20051;-48
2023/10/07 00:58:13;;;;;;;7.20;3.97;;;17.40;64.60;;;;;;4963834;28;20126;-48
2023/10/07 01:00:47;;;;;;;6.63;3.40;;;17.40;64.40;;;;;;4969098;28;20047;-48
2023/10/07 01:06:13;;;;;;;4.15;2.78;;;17.40;64.50;;;;;;4965023;28;20042;-51
2023/10/07 01:08:47;;;;;;;5.30;3.40;;;17.40;64.50;;;;;;4967055;28;20093;-48
2023/10/07 01:11:21;;;;;;;7.30;4.05;;;17.40;64.80;;;;;;4969720;28;20051;-51
2023/10/07 01:13:50;;;;;;;8.63;3.72;;;17.40;64.70;;;;;;4968585;28;20051;-48
2023/10/07 01:16:33;;;;;;;10.82;3.50;;;17.40;64.80;;;;;;4968281;28;20440;-48
2023/10/07 01:19:29;;;;;;;6.93;3.20;;;17.40;64.90;;;;;;4965577;28;20654;-50
2023/10/07 01:25:18;;;;;;;8.23;4.13;;;17.40;64.90;;;;;;4958375;28;20039;-48
2023/10/07 01:28:15;;;;;;;6.60;3.40;;;17.40;64.90;;;;;;4968746;28;20444;-50
2023/10/07 01:33:40;;;;;;;5.32;3.30;;;17.40;65.20;;;;;;4969615;28;20047;-49
2023/10/07 01:36:18;;;;;;;8.40;4.35;;;17.40;65.20;;;;;;4969203;28;20042;-51
2023/10/07 01:39:01;;;;;;;6.78;4.03;;;17.40;65.40;;;;;;4962295;28;20051;-50
2023/10/07 01:41:39;;;;;;;4.93;3.55;;;17.40;66.00;;;;;;4975565;28;20413;-49
2023/10/07 01:44:17;;;;;;;6.88;3.65;;;17.40;65.80;;;;;;4969461;28;20046;-51
2023/10/07 01:46:55;;;;;;;7.35;3.28;;;17.30;65.70;;;;;;4971423;28;20046;-48
2023/10/07 01:49:30;;;;;;;5.93;4.35;;;17.30;65.70;;;;;;4966098;28;20143;-48
2023/10/07 01:52:14;;;;;;;10.05;4.70;;;17.30;66.00;;;;;;4962275;28;20050;-51
2023/10/07 01:54:54;;;;;;;6.32;4.13;;;17.40;66.80;;;;;;4971541;28;20055;-50
2023/10/07 01:57:30;;;;;;;7.20;3.92;;;17.30;66.00;;;;;;4966577;28;20055;-51
2023/10/07 02:00:07;;;;;;;5.95;4.65;;;17.30;66.70;;;;;;4963831;28;20043;-51
2023/10/07 02:02:48;;;;;;;7.45;4.22;;;17.30;66.30;;;;;;4972942;28;20042;-47
2023/10/07 02:05:35;;;;;;;6.43;4.60;;;17.40;66.50;;;;;;4972143;28;20046;-49
2023/10/07 02:08:20;;;;;;;9.38;4.55;;;17.40;66.60;;;;;;4967014;28;20053;-52
2023/10/07 02:11:28;;;;;;;7.90;4.15;;;17.40;66.80;;;;;;4965431;28;20782;-50
2023/10/07 02:14:09;;;;;;;5.90;3.88;;;17.40;66.90;;;;;;4971658;28;20134;-50
2023/10/07 02:16:52;;;;;;;7.97;4.57;;;17.40;66.60;;;;;;4971845;28;20043;-52
2023/10/07 02:19:32;;;;;;;6.93;4.10;;;17.50;66.80;;;;;;4964152;28;20138;-52
2023/10/07 02:22:21;;;;;;;10.55;4.95;;;17.50;66.90;;;;;;4957958;28;20047;-50
2023/10/07 02:25:03;;;;;;;8.10;4.13;;;17.50;67.00;;;;;;4971086;28;20070;-50
2023/10/07 02:27:41;;;;;;;7.97;4.13;;;17.50;66.80;;;;;;4971163;28;20480;-48
2023/10/07 02:30:25;;;;;;;5.80;4.13;;;17.50;66.90;;;;;;4967852;28;20066;-51
2023/10/07 02:32:54;;;;;;;6.40;4.90;;;17.50;67.00;;;;;;4963138;28;20054;-48
2023/10/07 02:35:30;;;;;;;9.35;4.40;;;17.50;66.90;;;;;;4965539;28;20078;-51
2023/10/07 02:38:10;;;;;;;6.82;4.90;;;17.50;67.10;;;;;;4977197;28;20053;-51
2023/10/07 02:40:49;;;;;;;8.43;5.00;;;17.50;67.20;;;;;;4957657;28;20083;-49
2023/10/07 02:43:24;;;;;;;9.05;5.05;;;17.50;67.40;;;;;;4973164;28;20623;-50
2023/10/07 02:46:06;;;;;;;7.18;4.55;;;17.50;67.50;;;;;;4962288;28;20047;-47
2023/10/07 02:48:45;;;;;;;9.02;5.10;;;17.50;67.60;;;;;;4968841;28;20034;-48
2023/10/07 02:51:22;;;;;;;7.90;5.55;;;17.50;67.70;;;;;;4971362;28;20079;-49
2023/10/07 02:54:00;;;;;;;7.57;4.57;;;17.40;67.70;;;;;;4971609;28;20050;-52
2023/10/07 02:57:34;;;;;;;8.13;5.10;;;17.50;67.90;;;;;;4984975;28;20054;-48
2023/10/07 02:59:50;;;;;;;7.82;5.35;;;17.50;67.80;;;;;;4963956;28;20051;-50
2023/10/07 03:02:37;;;;;;;11.02;4.88;;;17.50;67.70;;;;;;4966716;28;20082;-51
2023/10/07 03:08:01;;;;;;;8.27;5.10;;;17.50;67.90;;;;;;4968974;28;20043;-52
2023/10/07 03:13:27;;;;;;;11.10;6.13;;;17.60;68.50;;;;;;4966401;28;20070;-49
2023/10/07 03:24:14;;;;;;;7.80;5.40;;;17.60;68.40;;;;;;4969097;28;20062;-48
2023/10/07 03:27:05;;;;;;;10.35;5.20;;;17.60;68.30;;;;;;4969080;28;20412;-48
2023/10/07 03:29:36;;;;;;;12.88;6.03;;;17.60;68.30;;;;;;4970333;28;20556;-49
2023/10/07 03:32:13;;;;;;;10.90;6.22;;;17.60;68.40;;;;;;4970338;28;20097;-48
2023/10/07 03:34:45;;;;;;;7.28;4.88;;;17.60;68.40;;;;;;4969150;28;20043;-50
2023/10/07 03:37:26;;;;;;;8.13;4.78;;;17.60;68.50;;;;;;4959740;28;20545;-48
2023/10/07 03:40:48;;;;;;;9.45;5.03;;;17.70;68.50;;;;;;4967014;28;20501;-51
2023/10/07 03:42:56;;;;;;;8.27;5.30;;;17.70;68.50;;;;;;4965548;28;20445;-50
2023/10/07 03:45:33;;;;;;;7.30;5.22;;;17.70;68.60;;;;;;4969982;28;20043;-48
2023/10/07 03:48:22;;;;;;;7.45;5.35;;;17.70;68.50;;;;;;4970232;28;20050;-48
2023/10/07 03:51:05;;;;;;;8.98;4.60;;;17.70;68.50;;;;;;4969472;28;20057;-49
2023/10/07 03:53:54;;;;;;;8.05;4.75;;;17.80;68.50;;;;;;4965285;28;20053;-51
2023/10/07 03:56:26;;;;;;;8.90;4.43;;;17.70;68.50;;;;;;4967011;28;20051;-51
2023/10/07 03:59:06;;;;;;;5.43;4.22;;;17.80;68.60;;;;;;4966745;28;20045;-51
2023/10/07 04:01:42;;;;;;;7.35;4.65;;;17.80;68.60;;;;;;4970027;28;20129;-49
2023/10/07 04:04:12;;;;;;;6.38;4.25;;;17.80;68.50;;;;;;4965665;28;20049;-51
2023/10/07 04:06:50;;;;;;;6.75;4.82;;;17.80;68.50;;;;;;4966841;28;20093;-48
2023/10/07 04:09:32;;;;;;;7.25;4.40;;;17.80;68.80;;;;;;4962954;28;20070;-52
2023/10/07 04:11:59;;;;;;;7.63;4.28;;;17.80;68.80;;;;;;4962524;28;20141;-48
2023/10/07 04:14:37;;;;;;;5.70;4.35;;;17.80;68.50;;;;;;4970084;28;20054;-49
2023/10/07 04:17:13;;;;;;;6.40;4.43;;;17.80;68.70;;;;;;4968564;28;20082;-52
2023/10/07 04:22:54;;;;;;;15.70;6.47;;;17.80;68.60;;;;;;4966443;28;20045;-52
2023/10/07 04:25:27;;;;;;;7.68;4.68;;;17.90;68.60;;;;;;4969711;28;20070;-47
2023/10/07 04:28:06;;;;;;;6.70;4.07;;;17.90;68.70;;;;;;4966692;28;20041;-49
2023/10/07 04:30:53;;;;;;;8.05;5.40;;;17.90;68.60;;;;;;4968979;28;20047;-51
2023/10/07 04:33:39;;;;;;;7.50;5.50;;;17.90;68.80;;;;;;4970779;28;20134;-51
2023/10/07 04:36:54;;;;;;;8.27;4.93;;;17.90;69.00;;;;;;4961773;28;20127;-49
2023/10/07 04:39:28;;;;;;;7.72;5.22;;;17.90;68.60;;;;;;4973796;28;20558;-48
2023/10/07 04:42:01;;;;;;;7.07;4.43;;;17.90;68.60;;;;;;4967572;28;20053;-50
2023/10/07 04:47:34;;;;;;;7.53;4.68;;;17.90;68.70;;;;;;4970027;28;20049;-48
2023/10/07 04:50:18;;;;;;;6.40;4.60;;;17.90;68.70;;;;;;4967470;28;20062;-48
2023/10/07 04:53:02;;;;;;;6.82;4.97;;;17.90;68.80;;;;;;4969372;28;20118;-51
2023/10/07 04:55:32;;;;;;;6.80;4.82;;;17.90;68.70;;;;;;4960441;28;20198;-49
2023/10/07 04:57:59;;;;;;;9.23;5.65;;;17.90;68.80;;;;;;4969995;28;20043;-49
2023/10/07 05:03:08;;;;;;;8.43;5.20;;;17.90;69.10;;;;;;4969789;28;20039;-47
2023/10/07 05:05:38;;;;;;;9.57;4.85;;;17.90;68.90;;;;;;4966931;28;20055;-52
2023/10/07 05:08:24;;;;;;;7.40;4.53;;;17.90;68.90;;;;;;4965534;28;20046;-48
2023/10/07 05:11:05;;;;;;;9.65;4.53;;;17.90;68.90;;;;;;4968176;28;20046;-49
2023/10/07 05:13:49;;;;;;;8.73;5.07;;;17.90;69.10;;;;;;4964209;28;20416;-49
2023/10/07 05:16:30;;;;;;;6.25;4.38;;;17.90;68.90;;;;;;4968910;28;20539;-48
2023/10/07 05:19:22;;;;;;;7.15;5.07;;;17.90;69.00;;;;;;4951967;28;20524;-48
2023/10/07 05:22:05;;;;;;;11.57;5.20;;;17.90;68.90;;;;;;4973405;28;20043;-52
2023/10/07 05:24:51;;;;;;;6.72;4.25;;;17.90;69.00;;;;;;4967789;28;20094;-48
2023/10/07 05:27:21;;;;;;;7.22;4.95;;;17.90;69.00;;;;;;4973747;28;20038;-52
2023/10/07 05:29:56;;;;;;;6.40;4.57;;;18.00;69.30;;;;;;4967683;28;20070;-50
2023/10/07 05:32:35;;;;;;;6.05;4.18;;;17.90;69.10;;;;;;4969010;28;20122;-48
2023/10/07 05:35:18;;;;;;;4.03;3.53;;;18.00;69.20;;;;;;4967791;28;20070;-51
2023/10/07 05:38:04;;;;;;;8.15;4.65;;;17.90;69.10;;;;;;4972512;28;20509;-49
2023/10/07 05:40:40;;;;;;;6.45;4.20;;;18.00;69.40;;;;;;4969291;28;20064;-48
2023/10/07 05:43:12;;;;;;;5.95;4.43;;;18.00;69.30;;;;;;4972973;28;20053;-48
2023/10/07 05:45:55;;;;;;;8.73;4.60;;;18.00;69.20;;;;;;4970051;28;20039;-49
2023/10/07 05:48:26;;;;;;;7.35;4.53;;;18.00;69.20;;;;;;4966868;28;20051;-50
2023/10/07 05:50:57;;;;;;;8.95;4.53;;;18.00;69.30;;;;;;4972978;28;20049;-52
2023/10/07 05:53:33;;;;;;;7.18;4.60;;;18.00;69.40;;;;;;4969178;28;20043;-50
2023/10/07 05:56:14;;;;;;;5.95;4.50;;;18.00;69.60;;;;;;4968271;28;20102;-47
2023/10/07 05:59:01;;;;;;;7.30;5.57;;;18.00;69.70;;;;;;4973339;28;20068;-52
2023/10/07 06:01:54;;;;;;;10.40;4.53;;;18.00;69.40;;;;;;4967218;28;20119;-48
2023/10/07 06:04:25;;;;;;;7.88;3.88;;;18.00;69.50;;;;;;4971573;28;20125;-51
2023/10/07 06:06:56;;;;;;;6.25;4.28;;;18.00;69.40;;;;;;4976777;28;20058;-51
2023/10/07 06:09:25;;;;;;;7.30;4.35;;;18.00;69.70;;;;;;4965985;28;20051;-51
2023/10/07 06:11:59;;;;;;;9.57;4.55;;;18.00;69.50;;;;;;4972086;28;20098;-52
2023/10/07 06:14:40;;;;;;;5.57;3.70;;;18.10;69.60;;;;;;4972336;28;20043;-48
2023/10/07 06:17:20;;;;;;;7.07;4.65;;;18.10;69.70;;;;;;4970689;28;20609;-49
2023/10/07 06:19:52;;;;;;;6.85;4.22;;;18.10;69.90;;;;;;4969075;28;20043;-49
2023/10/07 06:22:28;;;;;;;7.47;4.28;;;18.10;69.80;;;;;;4972855;28;20060;-52
2023/10/07 06:24:57;;;;;;;5.82;3.40;;;18.10;69.60;;;;;;4971630;28;20122;-52
2023/10/07 06:27:28;;;;;;;5.13;4.20;;;18.10;69.60;;;;;;4967188;28;20122;-48
2023/10/07 06:29:56;;;;;;;7.07;4.28;;;18.10;70.20;;;;;;4963756;28;20039;-52
2023/10/07 06:32:43;;;;;;;5.72;3.78;;;18.10;69.60;;;;;;4968892;28;20568;-49
2023/10/07 06:35:47;;;;;;;7.20;4.03;;;18.20;69.80;;;;;;4967374;28;20150;-51
2023/10/07 06:38:28;;;;;;;10.10;3.80;;;18.20;69.70;;;;;;4972693;28;20049;-51
2023/10/07 06:41:09;;;;;;;13.85;5.22;;;18.20;69.70;;;;;;4970199;28;20066;-52
2023/10/07 06:43:43;;;;;;;7.97;3.97;;;18.20;69.70;;;;;;4969135;28;20496;-51
2023/10/07 06:46:12;;;;;;;7.38;4.65;;;18.30;69.70;;;;;;4966289;28;20065;-52
2023/10/07 06:48:50;;;;;;;7.93;3.92;;;18.30;69.80;;;;;;4957841;28;20041;-52
2023/10/07 06:51:28;;;;;;;6.45;3.70;;;18.40;69.80;;;;;;4969143;28;20054;-49
2023/10/07 06:54:03;;;;;;;5.82;3.63;;;18.40;69.70;;;;;;4968500;28;20054;-52
2023/10/07 06:56:34;;;;;;;8.45;4.57;;;18.40;69.70;;;;;;4992371;23;20473;-51
2023/10/07 06:59:03;;;;;;;7.70;4.15;;;18.50;69.70;;;;;;4999782;28;20468;-47
2023/10/07 07:01:35;;;;;;;6.03;4.35;;;18.40;70.20;;;;;;5003385;28;20042;-48
2023/10/07 07:04:18;;;;;;;10.98;4.38;;;18.50;69.60;;;;;;5006134;28;20118;-48
2023/10/07 07:06:57;;;;;;;7.50;3.83;;;18.50;69.40;;;;;;5010820;28;20506;-53
2023/10/07 07:12:12;;;;;;;7.20;3.90;;;18.60;69.40;;;;;;5011682;28;20500;-52
2023/10/07 07:14:46;;;;;;;5.10;3.67;;;18.60;69.30;;;;;;5017609;28;20038;-52
2023/10/07 07:22:43;;;;;;;6.32;3.67;;;18.70;69.30;;;;;;5021644;28;20045;-52
2023/10/07 07:25:17;;;;;;;6.22;3.85;;;18.70;69.30;;;;;;5013662;28;20046;-52
2023/10/07 07:27:52;;;;;;;6.30;3.92;;;18.70;69.20;;;;;;5023638;28;20200;-52
2023/10/07 07:30:19;;;;;;;6.63;3.72;;;18.70;69.10;;;;;;5011466;28;20451;-53
2023/10/07 07:32:55;;;;;;;5.43;3.22;;;18.80;69.20;;;;;;5017438;28;20049;-53
2023/10/07 07:35:38;;;;;;;7.32;3.70;;;18.80;69.20;;;;;;5018832;28;20504;-49
2023/10/07 07:38:29;;;;;;;6.82;4.22;;;18.80;69.10;;;;;;5012755;28;20072;-51
2023/10/07 07:41:06;;;;;;;5.72;3.65;;;18.80;69.40;;;;;;5013365;28;20095;-51
2023/10/07 07:43:37;;;;;;;7.20;4.40;;;18.70;68.90;;;;;;5014813;28;20148;-52
2023/10/07 07:46:26;;;;;;;5.90;4.47;;;18.70;69.00;;;;;;5015041;28;20050;-52
2023/10/07 07:48:55;;;;;;;7.35;4.00;;;18.70;69.00;;;;;;5025057;28;20033;-52
2023/10/07 07:51:25;;;;;;;7.50;4.15;;;18.80;69.10;;;;;;5012396;28;20593;-53
2023/10/07 07:53:53;;;;;;;6.43;4.13;;;18.80;69.20;;;;;;5011484;28;20042;-53
2023/10/07 07:56:20;;;;;;;7.60;4.10;;;18.80;69.20;;;;;;5013160;28;20118;-52
2023/10/07 07:58:49;;;;;;;8.13;4.13;;;18.80;69.30;;;;;;5019078;28;20056;-52
2023/10/07 08:01:34;;;;;;;5.70;3.88;;;18.90;69.40;;;;;;5021778;28;20038;-52
2023/10/07 08:04:46;;;;;;;6.38;3.85;;;18.90;69.40;;;;;;5007906;28;20100;-50
2023/10/07 08:07:28;;;;;;;7.03;4.53;;;18.90;69.20;;;;;;5009917;28;20572;-53
2023/10/07 08:10:10;;;;;;;6.13;3.72;;;19.00;69.00;;;;;;5014891;28;20092;-54
2023/10/07 08:13:06;;;;;;;9.05;4.10;;;19.00;69.10;;;;;;5012858;28;20633;-53
2023/10/07 08:16:15;;;;;;;8.27;4.00;;;19.10;69.20;;;;;;5006594;28;20068;-49
2023/10/07 08:18:46;;;;;;;7.05;3.78;;;19.10;69.00;;;;;;5012615;28;20121;-51
2023/10/07 08:21:16;;;;;;;5.30;4.05;;;19.20;69.00;;;;;;5011828;28;20033;-53
2023/10/07 08:23:51;;;;;;;6.05;3.85;;;19.20;69.00;;;;;;5016053;28;20507;-51
2023/10/07 08:26:34;;;;;;;6.95;3.85;;;19.20;69.00;;;;;;5018075;28;20044;-53
2023/10/07 08:29:25;;;;;;;;;;;19.30;69.00;;;;;;5017528;28;20049;-53
2023/10/07 08:32:14;;;;;;;7.45;3.13;;;19.40;68.80;;;;;;5005815;28;19935;-50
2023/10/07 08:34:47;;;;;;;8.68;3.97;;;19.50;68.30;;;;;;5017941;28;20515;-52
2023/10/07 08:37:16;;;;;;;8.93;4.60;;;19.50;68.20;;;;;;5019583;28;20049;-50
2023/10/07 08:39:46;;;;;;;8.38;4.22;;;19.60;68.10;;;;;;5016938;28;20038;-51
2023/10/07 08:42:18;;;;;;;4.85;4.18;;;19.60;68.10;;;;;;5007234;28;20050;-55
2023/10/07 08:44:51;;;;;;;4.75;3.35;;;19.60;67.80;;;;;;5016732;28;20073;-53
2023/10/07 08:47:21;;;;;;;9.18;4.28;;;19.60;67.70;;;;;;5015758;28;20414;-52
2023/10/07 08:49:52;;;;;;;6.32;3.60;;;19.60;67.60;;;;;;5023725;28;20038;-53
2023/10/07 08:52:20;;;;;;;6.30;4.30;;;19.60;67.60;;;;;;5013483;28;20034;-49
2023/10/07 08:54:47;;;;;;;8.32;3.83;;;19.60;67.80;;;;;;5025547;28;20569;-53
2023/10/07 08:57:19;;;;;;;6.00;3.65;;;19.60;67.90;;;;;;5019681;28;20411;-50
2023/10/07 08:59:52;;;;;;;8.52;3.63;;;19.60;67.70;;;;;;5020409;28;20128;-52
2023/10/07 09:02:40;;;;;;;8.68;4.38;;;19.60;67.70;;;;;;5014273;28;20618;-53
2023/10/07 09:05:16;;;;;;;6.13;3.85;;;19.60;67.60;;;;;;5014015;28;20120;-54
2023/10/07 09:07:48;;;;;;;8.93;3.78;;;19.60;67.80;;;;;;5022442;28;20060;-49
2023/10/07 09:10:19;;;;;;;5.78;4.18;;;19.60;68.00;;;;;;5017656;28;20205;-52
2023/10/07 09:12:48;;;;;;;8.20;4.80;;;19.60;68.10;;;;;;5016188;28;20092;-53
2023/10/07 09:15:25;;;;;;;6.68;4.13;;;19.60;67.90;;;;;;5017280;28;20463;-53
2023/10/07 09:18:05;;;;;;;6.25;3.55;;;19.60;68.00;;;;;;5017141;28;20046;-52
2023/10/07 09:20:36;;;;;;;10.02;4.25;;;19.60;68.00;;;;;;5018567;28;20068;-53
2023/10/07 09:23:14;;;;;;;5.88;3.53;;;19.60;68.00;;;;;;5016335;28;20068;-55
2023/10/07 09:25:46;;;;;;;5.68;4.03;;;19.60;67.80;;;;;;5018920;28;20735;-51
2023/10/07 09:28:13;;;;;;;5.18;3.67;;;19.70;67.90;;;;;;5013642;28;20263;-52
2023/10/07 09:33:17;;;;;;;7.43;3.97;;;19.80;68.00;;;;;;5016194;28;20057;-53
2023/10/07 09:35:46;;;;;;;7.78;3.80;;;19.80;68.00;;;;;;5021459;28;20120;-52
2023/10/07 09:41:24;;;;;;;7.32;3.78;;;19.90;67.80;;;;;;4979057;28;20136;-53
2023/10/07 09:43:52;;;;;;;7.40;3.13;;;20.00;67.50;;;;;;5010745;28;20061;-54
2023/10/07 09:46:25;;;;;;;4.47;3.13;;;20.00;67.50;;;;;;5011634;28;20050;-53
2023/10/07 09:48:59;;;;;;;8.10;3.35;;;20.10;67.40;;;;;;5021172;28;20033;-53
2023/10/07 09:51:34;;;;;;;6.22;3.35;;;20.10;67.10;;;;;;5020204;28;20108;-50
2023/10/07 09:54:37;;;;;;;4.53;3.35;;;20.20;67.10;;;;;;5013896;28;20121;-49
2023/10/07 09:57:24;;;;;;;6.47;2.60;;;20.30;66.90;;;;;;5019906;28;20048;-53
2023/10/07 10:00:38;;;;;;;5.65;2.92;;;20.30;66.60;;;;;;5012578;28;20087;-52
2023/10/07 10:03:28;;;;;;;5.95;2.80;;;20.40;66.40;;;;;;5011627;28;20111;-52
2023/10/07 10:06:28;;;;;;;6.00;3.63;;;20.50;66.50;;;;;;5021776;28;20575;-53
2023/10/07 10:09:14;;;;;;;6.05;2.60;;;20.50;65.90;;;;;;5017751;28;20061;-54
2023/10/07 10:11:55;;;;;;;4.93;3.10;;;20.60;65.90;;;;;;5018448;28;21105;-49
2023/10/07 10:14:40;;;;;;;4.93;3.38;;;20.60;65.90;;;;;;5019475;28;20041;-55
2023/10/07 10:17:12;;;;;;;5.85;2.67;;;20.60;65.40;;;;;;5019021;28;20056;-54
2023/10/07 10:19:52;;;;;;;6.93;3.33;;;20.70;65.70;;;;;;5019576;28;20091;-53
2023/10/07 10:22:23;;;;;;;5.40;2.85;;;20.70;66.00;;;;;;5020824;28;20056;-48
2023/10/07 10:25:09;;;;;;;7.10;3.20;;;20.80;66.10;;;;;;5012833;28;20037;-53
2023/10/07 10:27:44;;;;;;;4.13;3.20;;;20.90;66.00;;;;;;5024328;28;20477;-53
2023/10/07 10:30:23;;;;;;;6.55;3.97;;;21.00;65.00;;;;;;5013148;28;20096;-51
2023/10/07 10:32:54;;;;;;;5.07;3.60;;;21.00;64.60;;;;;;5018086;28;20575;-53
2023/10/07 10:35:24;;;;;;;4.20;2.65;;;21.10;64.30;;;;;;5014671;28;20052;-55
2023/10/07 10:37:57;;;;;;;5.55;2.53;;;21.10;64.30;;;;;;5021862;28;20515;-53
2023/10/07 10:40:31;;;;;;;5.68;3.33;;;21.20;64.10;;;;;;5014537;28;20057;-56
2023/10/07 10:43:00;;;;;;;6.40;2.85;;;21.30;64.00;;;;;;5022638;28;20080;-51
2023/10/07 10:45:29;;;;;;;7.07;3.47;;;21.20;63.70;;;;;;5016603;28;20074;-53
2023/10/07 10:48:01;;;;;;;4.47;2.95;;;21.30;63.70;;;;;;5012972;28;20029;-53
2023/10/07 10:50:32;;;;;;;5.05;2.97;;;21.30;63.70;;;;;;5017255;28;20462;-51
2023/10/07 10:53:00;;;;;;;9.00;3.92;;;21.30;64.00;;;;;;5010671;28;20034;-54
2023/10/07 10:55:37;;;;;;;4.38;3.00;;;21.40;63.70;;;;;;5010095;28;20474;-54
2023/10/07 10:58:22;;;;;;;5.65;3.10;;;21.40;63.40;;;;;;5019070;28;20034;-49
2023/10/07 11:00:54;;;;;;;5.55;2.80;;;21.50;63.30;;;;;;5015237;28;20034;-54
2023/10/07 11:03:21;;;;;;;5.17;3.33;;;21.50;63.60;;;;;;5019241;28;20038;-49
2023/10/07 11:05:52;;;;;;;3.97;3.03;;;21.60;63.40;;;;;;5016620;28;20989;-49
2023/10/07 11:08:24;;;;;;;5.68;2.45;;;21.60;63.20;;;;;;5014317;28;20038;-50
2023/10/07 11:10:57;;;;;;;3.42;2.60;;;21.70;63.50;;;;;;5013501;28;20048;-53
2023/10/07 11:13:26;;;;;;;3.88;2.75;;;21.70;63.00;;;;;;5009529;28;20050;-54
2023/10/07 11:16:11;;;;;;;5.05;2.75;;;21.80;63.00;;;;;;5016919;28;20042;-54
2023/10/07 11:18:45;;;;;;;7.28;3.05;;;21.90;62.50;;;;;;5010995;28;20042;-52
2023/10/07 11:21:14;;;;;;;4.28;2.78;;;21.90;62.40;;;;;;5012423;28;20512;-49
2023/10/07 11:23:54;;;;;;;5.88;2.92;;;21.90;62.60;;;;;;5023797;28;20543;-52
2023/10/07 11:26:24;;;;;;;3.47;3.17;;;22.00;62.00;;;;;;5011536;28;20123;-51
2023/10/07 11:28:52;;;;;;;7.53;2.80;;;22.10;62.40;;;;;;5020273;28;20042;-54
2023/10/07 11:31:30;;;;;;;5.20;2.63;;;22.10;62.40;;;;;;5018520;28;20495;-50
2023/10/07 11:33:59;;;;;;;4.22;2.83;;;22.20;62.20;;;;;;5011552;28;20099;-52
2023/10/07 11:36:26;;;;;;;3.95;2.28;;;22.30;62.30;;;;;;5008645;28;20050;-55
2023/10/07 11:38:53;;;;;;;5.65;2.92;;;22.30;62.00;;;;;;5012873;28;20124;-55
2023/10/07 11:41:26;;;;;;;4.72;3.35;;;22.40;61.90;;;;;;5015818;28;20052;-52
2023/10/07 11:43:53;;;;;;;6.32;3.00;;;22.40;61.60;;;;;;5014845;28;20046;-49
2023/10/07 11:46:20;;;;;;;4.40;3.13;;;22.50;61.50;;;;;;5019212;28;20033;-52
2023/10/07 11:48:49;;;;;;;3.85;2.70;;;22.50;61.20;;;;;;5016604;28;20120;-53
2023/10/07 11:51:17;;;;;;;4.40;3.00;;;22.50;61.00;;;;;;5016802;28;20038;-52
2023/10/07 11:53:45;;;;;;;3.97;3.50;;;22.60;60.90;;;;;;5009331;28;20080;-50
2023/10/07 11:56:14;;;;;;;4.95;3.45;;;22.60;60.90;;;;;;5014856;28;20054;-49
2023/10/07 11:58:42;;;;;;;4.38;2.55;;;22.70;60.80;;;;;;5017223;28;20056;-52
2023/10/07 12:01:24;;;;;;;3.53;3.05;;;22.70;60.40;;;;;;5020764;28;20534;-53
2023/10/07 12:04:00;;;;;;;4.00;2.65;;;22.80;59.90;;;;;;5016062;28;20070;-51
2023/10/07 12:06:32;;;;;;;4.75;2.60;;;22.90;59.60;;;;;;5017375;28;20095;-53
2023/10/07 12:09:24;;;;;;;3.93;2.80;;;22.90;59.60;;;;;;5019173;28;20159;-51
2023/10/07 12:11:58;;;;;;;5.18;2.58;;;22.90;59.30;;;;;;5009297;28;20077;-50
2023/10/07 12:14:52;;;;;;;5.38;3.10;;;23.10;59.70;;;;;;5018356;28;20563;-50
2023/10/07 12:17:32;;;;;;;3.92;2.47;;;23.10;59.70;;;;;;5012742;28;20513;-50
2023/10/07 12:20:20;;;;;;;5.65;2.47;;;23.20;59.30;;;;;;5009552;28;20127;-49
2023/10/07 12:23:10;;;;;;;5.47;3.13;;;23.20;59.20;;;;;;5017194;28;20117;-50
2023/10/07 12:25:57;;;;;;;3.67;2.22;;;23.40;59.00;;;;;;5021342;28;20048;-50
2023/10/07 12:28:30;;;;;;;2.70;2.30;;;23.40;58.90;;;;;;5009699;28;20049;-51
2023/10/07 12:31:14;;;;;;;7.63;3.13;;;23.50;58.40;;;;;;5011261;28;20042;-51
2023/10/07 12:33:41;;;;;;;4.90;2.50;;;23.50;58.50;;;;;;5018475;28;20504;-50
2023/10/07 12:36:27;;;;;;;8.10;2.63;;;23.50;58.80;;;;;;5009907;28;20049;-49
2023/10/07 12:39:10;;;;;;;4.68;2.90;;;23.60;58.50;;;;;;5018528;28;20123;-52
2023/10/07 12:42:04;;;;;;;4.18;2.40;;;23.70;57.90;;;;;;5011890;28;20050;-51
2023/10/07 12:44:39;;;;;;;4.25;2.58;;;23.80;58.40;;;;;;5019346;28;20042;-53
2023/10/07 12:47:23;;;;;;;3.33;2.47;;;23.80;57.50;;;;;;5015873;28;20129;-50
2023/10/07 12:50:20;;;;;;;3.75;2.58;;;23.90;57.60;;;;;;5011791;28;20044;-52
2023/10/07 12:52:53;;;;;;;4.47;3.10;;;23.90;57.50;;;;;;5018902;28;20038;-50
2023/10/07 12:55:29;;;;;;;;;;;;;;;;;;;;;
2023/10/07 13:01:22;;;;;;;2.67;2.00;;;24.10;56.90;;;;;;5017854;28;20044;-50
2023/10/07 13:04:02;;;;;;;4.20;2.13;;;24.20;57.20;;;;;;5010228;28;20049;-53
2023/10/07 13:06:51;;;;;;;4.35;2.80;;;24.20;56.60;;;;;;5010321;28;20129;-50
2023/10/07 13:09:39;;;;;;;7.38;3.30;;;24.30;56.50;;;;;;5015936;28;20503;-54
2023/10/07 13:12:30;;;;;;;4.47;2.65;;;24.50;56.50;;;;;;5015947;28;20053;-52
2023/10/07 13:15:15;;;;;;;2.72;2.10;;;24.60;56.70;;;;;;5011604;28;20092;-50
2023/10/07 13:17:49;;;;;;;5.15;2.38;;;24.70;55.90;;;;;;5011662;28;20077;-52
2023/10/07 13:20:27;;;;;;;6.90;2.67;;;24.80;55.70;;;;;;5023023;28;20046;-51
2023/10/07 13:23:05;;;;;;;3.35;2.72;;;24.90;55.10;;;;;;5019522;28;20041;-53
2023/10/07 13:25:40;;;;;;;;;;;25.00;55.00;;;;;;5019909;28;20048;-54
2023/10/07 13:28:19;;;;;;;3.80;2.50;;;25.10;56.10;;;;;;5011589;28;20023;-50
2023/10/07 13:30:58;;;;;;;4.25;2.92;;;25.20;54.90;;;;;;5010034;28;20038;-53
2023/10/07 13:33:36;;;;;;;3.88;2.75;;;25.40;55.10;;;;;;5012475;28;20052;-53
2023/10/07 13:36:33;;;;;;;5.00;2.78;;;25.60;54.60;;;;;;5021955;28;20057;-53
2023/10/07 13:39:18;;;;;;;4.32;2.63;;;26.00;55.20;;;;;;5015336;28;20088;-53
2023/10/07 13:41:56;;;;;;;5.93;2.90;;;26.50;54.00;;;;;;5024577;28;20042;-55
2023/10/07 13:44:32;;;;;;;5.63;2.75;;;27.00;53.20;;;;;;5029210;28;20491;-50
2023/10/07 13:47:08;;;;;;;3.80;2.60;;;27.50;52.20;;;;;;5020903;28;20061;-52
2023/10/07 13:49:41;;;;;;;5.18;2.58;;;28.00;51.20;;;;;;5021504;28;20125;-50
2023/10/07 13:52:21;;;;;;;4.80;2.72;;;28.40;50.50;;;;;;5015850;28;20069;-53
2023/10/07 13:55:22;;;;;;;2.53;1.95;;;28.80;50.20;;;;;;5020015;28;20050;-53
2023/10/07 13:58:06;;;;;;;5.70;2.72;;;29.40;50.10;;;;;;5013421;28;20084;-54
2023/10/07 14:00:51;;;;;;;3.90;2.50;;;30.00;49.50;;;;;;5021020;28;20049;-54
2023/10/07 14:03:39;;;;;;;4.05;2.38;;;30.60;47.90;;;;;;5011630;28;20483;-50
2023/10/07 14:06:15;;;;;;;4.13;2.30;;;31.30;46.30;;;;;;5017657;28;20107;-54
2023/10/07 14:08:52;;;;;;;8.05;2.75;;;31.90;45.90;;;;;;5013711;28;20038;-51
2023/10/07 14:11:31;;;;;;;3.80;2.97;;;32.40;44.50;;;;;;5016429;28;20042;-52
2023/10/07 14:14:08;;;;;;;3.40;2.45;;;32.90;43.50;;;;;;5017780;28;20133;-52
2023/10/07 14:16:55;;;;;;;4.53;3.00;;;33.20;43.10;;;;;;5016098;28;20033;-53
2023/10/07 14:19:47;;;;;;;5.05;2.90;;;33.50;41.10;;;;;;5022502;28;20064;-54
2023/10/07 14:22:20;;;;;;;3.75;2.65;;;33.80;40.80;;;;;;5023416;28;20068;-53
2023/10/07 14:25:16;;;;;;;4.85;2.88;;;34.10;41.30;;;;;;5028913;28;20136;-51
2023/10/07 14:28:11;;;;;;;;;;;;;;;;;;;;;
2023/10/07 14:30:47;;;;;;;3.03;2.60;;;34.60;39.50;;;;;;5020240;28;20046;-54
2023/10/07 14:33:19;;;;;;;4.30;2.70;;;34.80;39.60;;;;;;5003817;28;20042;-55
2023/10/07 14:35:49;;;;;;;3.88;2.60;;;34.90;39.10;;;;;;5019410;28;20042;-54